Time;durP1;ratioP1;P1;durP2;ratioP2;P2;SDS_P1;SDS_P2;PMS_P1;PMS_P2;Temp;Humidity;BMP_temperature;BMP_pressure;BME280_temperature;BME280_humidity;BME280_pressure;Samples;Min_cycle;Max_cycle;Signal;HPM_P1;HPM_P2
2023/10/06 00:02:09;;;;;;;3.47;2.50;;;;;;;;;;4954431;28;20481;-68
2023/10/06 00:04:38;;;;;;;3.23;3.03;;;;;;;;;;4953355;28;20435;-68
2023/10/06 00:07:07;;;;;;;3.20;2.97;;;;;;;;;;4953708;28;20468;-69
2023/10/06 00:09:33;;;;;;;2.80;2.70;;;;;;;;;;4953982;29;20999;-68
2023/10/06 00:12:03;;;;;;;3.73;3.00;;;;;;;;;;4952331;28;21373;-68
2023/10/06 00:14:39;;;;;;;3.20;2.90;;;;;;;;;;4953623;28;20487;-68
2023/10/06 00:17:17;;;;;;;3.43;3.10;;;;;;;;;;4953257;28;20438;-68
2023/10/06 00:19:47;;;;;;;3.00;2.80;;;;;;;;;;4953187;28;20450;-68
2023/10/06 00:22:17;;;;;;;3.60;3.30;;;;;;;;;;4953487;28;20461;-68
2023/10/06 00:24:50;;;;;;;4.30;2.80;;;;;;;;;;4954073;28;20446;-68
2023/10/06 00:27:18;;;;;;;3.00;2.80;;;;;;;;;;4952838;28;21701;-68
2023/10/06 00:29:48;;;;;;;3.30;2.93;;;;;;;;;;4953105;29;20437;-68
2023/10/06 00:32:27;;;;;;;2.30;2.20;;;;;;;;;;4952797;29;20493;-68
2023/10/06 00:34:54;;;;;;;9.73;3.33;;;;;;;;;;4953629;28;20986;-68
2023/10/06 00:37:23;;;;;;;2.47;2.37;;;;;;;;;;4935307;29;20457;-68
2023/10/06 00:39:50;;;;;;;2.70;2.60;;;;;;;;;;4952751;29;20502;-68
2023/10/06 00:42:19;;;;;;;4.87;2.67;;;;;;;;;;4951623;28;20447;-68
2023/10/06 00:44:46;;;;;;;2.70;2.50;;;;;;;;;;4952736;29;20470;-68
2023/10/06 00:47:17;;;;;;;2.97;2.70;;;;;;;;;;4952897;28;20447;-68
2023/10/06 00:49:43;;;;;;;3.63;3.40;;;;;;;;;;4935380;29;20951;-68
2023/10/06 00:52:11;;;;;;;8.27;2.80;;;;;;;;;;4951714;29;20506;-68
2023/10/06 00:54:38;;;;;;;3.53;3.23;;;;;;;;;;4952960;29;20513;-68
2023/10/06 00:57:10;;;;;;;2.80;2.67;;;;;;;;;;4952341;28;20453;-68
2023/10/06 00:59:36;;;;;;;3.70;3.23;;;;;;;;;;4952866;28;20505;-69
2023/10/06 01:02:03;;;;;;;3.13;3.03;;;;;;;;;;4951896;28;20843;-68
2023/10/06 01:04:34;;;;;;;5.17;3.20;;;;;;;;;;4951899;28;20443;-69
2023/10/06 01:07:01;;;;;;;7.07;3.50;;;;;;;;;;4952728;29;20435;-68
2023/10/06 01:09:35;;;;;;;3.43;3.10;;;;;;;;;;4952266;28;20961;-68
2023/10/06 01:12:06;;;;;;;2.87;2.77;;;;;;;;;;4951566;28;20462;-68
2023/10/06 01:14:34;;;;;;;4.20;3.80;;;;;;;;;;4952141;28;20466;-68
2023/10/06 01:17:14;;;;;;;4.30;3.30;;;;;;;;;;4952159;28;20970;-68
2023/10/06 01:19:47;;;;;;;9.77;3.50;;;;;;;;;;4951858;28;20437;-68
2023/10/06 01:22:24;;;;;;;5.20;4.20;;;;;;;;;;4934863;29;21984;-68
2023/10/06 01:24:51;;;;;;;12.97;4.37;;;;;;;;;;4952459;29;20454;-68
2023/10/06 01:27:17;;;;;;;4.67;4.30;;;;;;;;;;4951996;29;20502;-68
2023/10/06 01:29:45;;;;;;;6.90;3.90;;;;;;;;;;4951456;28;20837;-68
2023/10/06 01:32:11;;;;;;;5.87;4.07;;;;;;;;;;4951643;28;20501;-67
2023/10/06 01:34:40;;;;;;;4.20;3.80;;;;;;;;;;4952135;29;20422;-68
2023/10/06 01:37:09;;;;;;;15.23;3.93;;;;;;;;;;4952420;29;20427;-68
2023/10/06 01:39:36;;;;;;;3.70;3.40;;;;;;;;;;4949957;28;20482;-68
2023/10/06 01:42:07;;;;;;;2.97;2.83;;;;;;;;;;4951232;28;20445;-68
2023/10/06 01:44:34;;;;;;;3.97;3.67;;;;;;;;;;4951964;28;20443;-68
2023/10/06 01:47:01;;;;;;;4.27;3.47;;;;;;;;;;4952709;28;20450;-68
2023/10/06 01:49:28;;;;;;;3.40;3.30;;;;;;;;;;4951402;28;20939;-68
2023/10/06 01:51:54;;;;;;;3.97;3.67;;;;;;;;;;4951741;28;20493;-68
2023/10/06 01:54:27;;;;;;;3.70;3.40;;;;;;;;;;4934206;29;20499;-68
2023/10/06 01:56:54;;;;;;;6.83;3.40;;;;;;;;;;4952458;28;20443;-68
2023/10/06 01:59:20;;;;;;;3.07;2.87;;;;;;;;;;4951832;28;20501;-68
2023/10/06 02:01:47;;;;;;;3.23;3.00;;;;;;;;;;4952782;28;20493;-68
2023/10/06 02:04:19;;;;;;;3.57;3.37;;;;;;;;;;4951739;28;20457;-68
2023/10/06 02:06:45;;;;;;;4.47;3.90;;;;;;;;;;4934150;29;20533;-68
2023/10/06 02:09:15;;;;;;;6.07;4.10;;;;;;;;;;4952893;28;20431;-68
2023/10/06 02:11:51;;;;;;;3.30;3.10;;;;;;;;;;4950969;28;20443;-68
2023/10/06 02:14:17;;;;;;;3.20;3.00;;;;;;;;;;4951016;28;20497;-68
2023/10/06 02:16:46;;;;;;;7.37;3.30;;;;;;;;;;4951145;28;20817;-68
2023/10/06 02:19:16;;;;;;;6.43;4.40;;;;;;;;;;4951674;28;20435;-68
2023/10/06 02:21:42;;;;;;;9.67;5.57;;;;;;;;;;4951223;29;20442;-68
2023/10/06 02:24:09;;;;;;;11.27;3.50;;;;;;;;;;4951388;28;20452;-68
2023/10/06 02:26:36;;;;;;;3.60;3.23;;;;;;;;;;4951030;28;20570;-68
2023/10/06 02:29:02;;;;;;;4.23;3.20;;;;;;;;;;4951305;28;20498;-68
2023/10/06 02:31:28;;;;;;;2.77;2.50;;;;;;;;;;4933872;29;20445;-68
2023/10/06 02:33:54;;;;;;;3.10;2.70;;;;;;;;;;4951363;28;20478;-68
2023/10/06 02:36:24;;;;;;;2.33;2.13;;;;;;;;;;4951899;28;20474;-68
2023/10/06 02:38:50;;;;;;;4.23;3.90;;;;;;;;;;4951714;28;20470;-69
2023/10/06 02:41:20;;;;;;;3.37;3.17;;;;;;;;;;4949331;28;20438;-68
2023/10/06 02:43:50;;;;;;;7.37;3.33;;;;;;;;;;4950488;28;20443;-69
2023/10/06 02:46:16;;;;;;;5.70;3.13;;;;;;;;;;4950362;28;20427;-69
2023/10/06 02:48:51;;;;;;;3.57;3.27;;;;;;;;;;4952364;28;20510;-68
2023/10/06 02:51:32;;;;;;;4.87;3.07;;;;;;;;;;4950654;28;20477;-68
2023/10/06 02:56:46;;;;;;;5.60;3.43;;;;;;;;;;4948625;28;20435;-69
2023/10/06 02:59:21;;;;;;;5.80;3.40;;;;;;;;;;4933205;28;20470;-68
2023/10/06 03:01:59;;;;;;;2.63;2.53;;;;;;;;;;4954077;28;20438;-69
2023/10/06 03:04:26;;;;;;;5.50;2.87;;;;;;;;;;4954800;28;20508;-68
2023/10/06 03:06:58;;;;;;;5.77;3.30;;;;;;;;;;4954930;28;20501;-68
2023/10/06 03:09:35;;;;;;;12.33;3.93;;;;;;;;;;4956507;28;20489;-68
2023/10/06 03:12:11;;;;;;;3.33;3.10;;;;;;;;;;4954008;28;20454;-68
2023/10/06 03:14:37;;;;;;;4.80;3.87;;;;;;;;;;4954474;28;20490;-70
2023/10/06 03:17:08;;;;;;;2.93;2.73;;;;;;;;;;4953037;28;20450;-68
2023/10/06 03:19:34;;;;;;;4.87;2.80;;;;;;;;;;4954930;28;20946;-68
2023/10/06 03:22:05;;;;;;;11.10;5.00;;;;;;;;;;4954183;28;20447;-69
2023/10/06 03:24:31;;;;;;;7.83;5.17;;;;;;;;;;4954321;29;20442;-68
2023/10/06 03:27:07;;;;;;;7.27;6.27;;;;;;;;;;4953423;28;20450;-69
2023/10/06 03:29:51;;;;;;;7.50;5.40;;;;;;;;;;4954063;28;20446;-68
2023/10/06 03:32:39;;;;;;;13.37;9.70;;;;;;;;;;4954582;29;20446;-68
2023/10/06 03:35:16;;;;;;;23.10;14.70;;;;;;;;;;4954102;28;20521;-68
2023/10/06 03:37:52;;;;;;;5.17;4.77;;;;;;;;;;4954378;28;20446;-68
2023/10/06 03:40:24;;;;;;;9.07;7.87;;;;;;;;;;4953472;28;20442;-68
2023/10/06 03:42:50;;;;;;;7.83;7.00;;;;;;;;;;4954189;29;20442;-68
2023/10/06 03:45:26;;;;;;;8.43;7.10;;;;;;;;;;4953219;28;20446;-71
2023/10/06 03:47:52;;;;;;;7.23;6.57;;;;;;;;;;4953623;28;21273;-67
2023/10/06 03:50:19;;;;;;;5.40;5.00;;;;;;;;;;4953615;29;20458;-68
2023/10/06 03:52:47;;;;;;;4.97;4.37;;;;;;;;;;4953575;28;20544;-69
2023/10/06 03:55:13;;;;;;;3.10;2.83;;;;;;;;;;4952405;28;20586;-69
2023/10/06 03:57:40;;;;;;;8.53;2.50;;;;;;;;;;4953428;28;20928;-68
2023/10/06 04:00:07;;;;;;;3.17;3.00;;;;;;;;;;4953676;28;20442;-68
2023/10/06 04:02:39;;;;;;;4.53;2.50;;;;;;;;;;4936935;29;20594;-68
2023/10/06 04:05:06;;;;;;;3.00;2.43;;;;;;;;;;4936640;29;20797;-69
2023/10/06 04:07:32;;;;;;;2.43;2.33;;;;;;;;;;4953099;28;20494;-68
2023/10/06 04:09:59;;;;;;;2.03;1.70;;;;;;;;;;4952952;28;20450;-68
2023/10/06 04:12:25;;;;;;;3.20;2.07;;;;;;;;;;4952007;28;20450;-68
2023/10/06 04:14:53;;;;;;;1.80;1.70;;;;;;;;;;4952841;28;20905;-68
2023/10/06 04:17:21;;;;;;;2.00;1.97;;;;;;;;;;4953488;29;20431;-69
2023/10/06 04:19:48;;;;;;;1.83;1.83;;;;;;;;;;4952695;29;20454;-68
2023/10/06 04:22:14;;;;;;;5.37;2.63;;;;;;;;;;4954167;28;20453;-68
2023/10/06 04:24:40;;;;;;;1.50;1.50;;;;;;;;;;4953823;28;20681;-68
2023/10/06 04:27:07;;;;;;;2.87;2.40;;;;;;;;;;4952934;28;21066;-68
2023/10/06 04:29:35;;;;;;;5.17;2.90;;;;;;;;;;4953348;29;20434;-68
2023/10/06 04:32:02;;;;;;;2.27;2.17;;;;;;;;;;4952232;28;20539;-68
2023/10/06 04:34:35;;;;;;;3.73;3.53;;;;;;;;;;4953140;29;20537;-68
2023/10/06 04:37:03;;;;;;;4.40;2.93;;;;;;;;;;4953521;28;20446;-68
2023/10/06 04:39:29;;;;;;;2.50;2.40;;;;;;;;;;4952897;28;20517;-71
2023/10/06 04:42:00;;;;;;;3.53;3.30;;;;;;;;;;4952104;28;20923;-67
2023/10/06 04:44:26;;;;;;;3.57;2.63;;;;;;;;;;4952244;29;20486;-68
2023/10/06 04:46:52;;;;;;;3.50;3.30;;;;;;;;;;4952885;29;20434;-69
2023/10/06 04:49:18;;;;;;;3.40;3.20;;;;;;;;;;4953046;29;20954;-67
2023/10/06 04:51:45;;;;;;;2.17;2.00;;;;;;;;;;4952362;29;20465;-68
2023/10/06 04:54:13;;;;;;;3.30;3.10;;;;;;;;;;4951452;28;20514;-68
2023/10/06 04:56:39;;;;;;;2.83;2.70;;;;;;;;;;4952624;29;20431;-69
2023/10/06 04:59:06;;;;;;;4.67;4.07;;;;;;;;;;4952750;29;20490;-68
2023/10/06 05:01:32;;;;;;;3.10;2.90;;;;;;;;;;4935023;29;20430;-69
2023/10/06 05:03:58;;;;;;;2.30;2.20;;;;;;;;;;4952039;28;20454;-68
2023/10/06 05:06:24;;;;;;;2.50;2.40;;;;;;;;;;4952803;29;20446;-68
2023/10/06 05:08:50;;;;;;;2.40;2.30;;;;;;;;;;4952015;28;20955;-67
2023/10/06 05:11:23;;;;;;;11.23;3.33;;;;;;;;;;4951964;28;20434;-68
2023/10/06 05:13:52;;;;;;;6.10;4.03;;;;;;;;;;4951758;28;20494;-70
2023/10/06 05:16:19;;;;;;;7.90;3.30;;;;;;;;;;4952356;28;20490;-68
2023/10/06 05:18:45;;;;;;;3.27;3.07;;;;;;;;;;4951697;29;21027;-67
2023/10/06 05:21:11;;;;;;;4.77;3.13;;;;;;;;;;4947917;28;20435;-71
2023/10/06 05:23:37;;;;;;;3.50;3.20;;;;;;;;;;4949385;28;20435;-75
2023/10/06 05:26:07;;;;;;;3.70;3.40;;;;;;;;;;4950501;28;20447;-69
2023/10/06 05:28:34;;;;;;;3.50;3.30;;;;;;;;;;4951184;28;20776;-73
2023/10/06 05:31:00;;;;;;;5.03;3.30;;;;;;;;;;4951637;29;20985;-70
2023/10/06 05:33:26;;;;;;;4.40;3.73;;;;;;;;;;4933839;28;20482;-71
2023/10/06 05:35:52;;;;;;;5.00;3.40;;;;;;;;;;4951917;28;20431;-69
2023/10/06 05:38:19;;;;;;;2.90;2.80;;;;;;;;;;4948846;28;20981;-75
2023/10/06 05:40:46;;;;;;;3.50;3.17;;;;;;;;;;4950224;29;20789;-70
2023/10/06 05:43:12;;;;;;;3.97;3.20;;;;;;;;;;4952005;29;20455;-69
2023/10/06 05:45:41;;;;;;;4.33;3.63;;;;;;;;;;4951189;28;20803;-69
2023/10/06 05:48:11;;;;;;;7.03;4.70;;;;;;;;;;4951640;29;20454;-70
2023/10/06 05:50:37;;;;;;;3.07;2.87;;;;;;;;;;4951301;29;20824;-68
2023/10/06 05:53:17;;;;;;;3.53;2.80;;;;;;;;;;4951010;28;20621;-70
2023/10/06 05:55:43;;;;;;;4.03;2.03;;;;;;;;;;4950678;28;20450;-70
2023/10/06 05:58:14;;;;;;;2.40;2.33;;;;;;;;;;4951923;29;20488;-69
2023/10/06 06:00:50;;;;;;;2.50;2.30;;;;;;;;;;4950857;29;20478;-72
2023/10/06 06:03:20;;;;;;;3.03;2.23;;;;;;;;;;4934263;29;21099;-73
2023/10/06 06:05:47;;;;;;;2.77;2.50;;;;;;;;;;4950799;28;20450;-69
2023/10/06 06:08:14;;;;;;;6.07;3.17;;;;;;;;;;4951338;28;20446;-68
2023/10/06 06:10:40;;;;;;;3.03;2.93;;;;;;;;;;4949272;29;20462;-74
2023/10/06 06:13:06;;;;;;;7.23;2.90;;;;;;;;;;4950984;28;20999;-69
2023/10/06 06:15:32;;;;;;;2.80;2.60;;;;;;;;;;4949546;28;21203;-70
2023/10/06 06:17:59;;;;;;;2.60;2.50;;;;;;;;;;4950070;28;20455;-70
2023/10/06 06:20:26;;;;;;;3.20;2.90;;;;;;;;;;4949902;28;20450;-70
2023/10/06 06:22:58;;;;;;;2.37;2.27;;;;;;;;;;4951045;28;20967;-69
2023/10/06 06:25:26;;;;;;;2.63;2.50;;;;;;;;;;4949829;28;20425;-68
2023/10/06 06:27:54;;;;;;;3.00;2.77;;;;;;;;;;4951423;29;20546;-71
2023/10/06 06:30:20;;;;;;;3.87;3.57;;;;;;;;;;4950221;29;20429;-68
2023/10/06 06:32:49;;;;;;;5.57;3.23;;;;;;;;;;4950259;29;20502;-72
2023/10/06 06:35:19;;;;;;;3.67;3.23;;;;;;;;;;4951907;28;20430;-73
2023/10/06 06:37:52;;;;;;;4.27;3.87;;;;;;;;;;4955226;28;20434;-72
2023/10/06 06:40:21;;;;;;;4.33;3.50;;;;;;;;;;4954482;29;20422;-68
2023/10/06 06:42:48;;;;;;;8.70;4.10;;;;;;;;;;4953885;28;20446;-74
2023/10/06 06:45:14;;;;;;;3.73;3.53;;;;;;;;;;4955255;29;20535;-70
2023/10/06 06:47:41;;;;;;;4.63;4.20;;;;;;;;;;4954978;29;20419;-73
2023/10/06 06:50:08;;;;;;;3.10;2.90;;;;;;;;;;4954131;28;20446;-69
2023/10/06 06:52:34;;;;;;;5.30;3.17;;;;;;;;;;4936990;29;20466;-68
2023/10/06 06:55:00;;;;;;;5.00;2.97;;;;;;;;;;4953308;28;20475;-69
2023/10/06 06:57:26;;;;;;;3.70;3.60;;;;;;;;;;4953275;29;20494;-69
2023/10/06 06:59:52;;;;;;;3.63;3.43;;;;;;;;;;4935583;29;20447;-69
2023/10/06 07:02:20;;;;;;;4.40;4.00;;;;;;;;;;4953066;28;20493;-70
2023/10/06 07:04:47;;;;;;;4.90;4.20;;;;;;;;;;4946506;28;20546;-70
2023/10/06 07:07:13;;;;;;;3.90;3.60;;;;;;;;;;4954074;29;20433;-69
2023/10/06 07:09:39;;;;;;;4.90;3.47;;;;;;;;;;4954440;29;20465;-68
2023/10/06 07:12:05;;;;;;;7.27;5.70;;;;;;;;;;4953867;29;20427;-68
2023/10/06 07:14:31;;;;;;;3.07;2.87;;;;;;;;;;4953278;28;20530;-68
2023/10/06 07:16:57;;;;;;;3.83;3.63;;;;;;;;;;4937050;29;21014;-67
2023/10/06 07:19:23;;;;;;;4.10;3.80;;;;;;;;;;4954583;28;20785;-68
2023/10/06 07:21:50;;;;;;;3.83;3.53;;;;;;;;;;4954347;29;20418;-69
2023/10/06 07:24:18;;;;;;;4.33;3.93;;;;;;;;;;4953963;28;20454;-68
2023/10/06 07:26:44;;;;;;;3.27;3.10;;;;;;;;;;4952773;28;20537;-73
2023/10/06 07:29:10;;;;;;;3.67;3.47;;;;;;;;;;4954120;29;20474;-70
2023/10/06 07:31:36;;;;;;;3.57;3.37;;;;;;;;;;4954375;29;20415;-69
2023/10/06 07:34:05;;;;;;;4.50;4.17;;;;;;;;;;4952888;28;20504;-68
2023/10/06 07:36:35;;;;;;;5.90;3.30;;;;;;;;;;4933377;29;20454;-68
2023/10/06 07:39:03;;;;;;;3.87;3.33;;;;;;;;;;4952502;28;20688;-69
2023/10/06 07:41:29;;;;;;;7.70;3.37;;;;;;;;;;4952096;29;20434;-69
2023/10/06 07:43:58;;;;;;;7.90;3.10;;;;;;;;;;4953720;28;20450;-69
2023/10/06 07:46:24;;;;;;;3.77;3.30;;;;;;;;;;4953911;28;20461;-68
2023/10/06 07:48:50;;;;;;;6.70;5.60;;;;;;;;;;4940548;28;20483;-68
2023/10/06 07:51:16;;;;;;;7.37;6.07;;;;;;;;;;4948284;28;20462;-68
2023/10/06 07:53:46;;;;;;;11.77;6.27;;;;;;;;;;4954041;28;20486;-71
2023/10/06 07:56:14;;;;;;;12.00;5.50;;;;;;;;;;4952494;28;20439;-69
2023/10/06 07:58:43;;;;;;;8.63;5.70;;;;;;;;;;4954484;28;20807;-69
2023/10/06 08:01:12;;;;;;;5.57;5.07;;;;;;;;;;4952849;28;20469;-68
2023/10/06 08:03:39;;;;;;;9.80;5.77;;;;;;;;;;4949125;28;20523;-69
2023/10/06 08:06:08;;;;;;;5.57;4.80;;;;;;;;;;4950740;28;20447;-68
2023/10/06 08:08:38;;;;;;;13.27;6.10;;;;;;;;;;4942019;28;20464;-68
2023/10/06 08:11:08;;;;;;;6.40;5.53;;;;;;;;;;4940768;28;20446;-69
2023/10/06 08:13:35;;;;;;;6.67;5.20;;;;;;;;;;4950740;28;20487;-69
2023/10/06 08:16:01;;;;;;;5.40;4.77;;;;;;;;;;4953860;28;20482;-70
2023/10/06 08:18:31;;;;;;;9.70;6.23;;;;;;;;;;4950980;28;20530;-69
2023/10/06 08:21:00;;;;;;;6.27;4.80;;;;;;;;;;4951192;28;20447;-68
2023/10/06 08:23:27;;;;;;;7.57;5.60;;;;;;;;;;4948673;28;20445;-73
2023/10/06 08:25:56;;;;;;;19.83;6.43;;;;;;;;;;4952401;28;20526;-73
2023/10/06 08:28:22;;;;;;;5.80;5.27;;;;;;;;;;4935797;29;20427;-74
2023/10/06 08:30:48;;;;;;;8.00;5.40;;;;;;;;;;4952844;28;20443;-70
2023/10/06 08:33:14;;;;;;;6.17;5.20;;;;;;;;;;4952346;28;20585;-71
2023/10/06 08:35:44;;;;;;;6.70;4.97;;;;;;;;;;4953676;28;20435;-69
2023/10/06 08:38:10;;;;;;;9.23;5.53;;;;;;;;;;4951467;29;20446;-75
2023/10/06 08:40:37;;;;;;;6.03;5.43;;;;;;;;;;4952354;28;20427;-69
2023/10/06 08:43:06;;;;;;;6.83;6.13;;;;;;;;;;4952035;29;20555;-71
2023/10/06 08:45:32;;;;;;;5.13;4.70;;;;;;;;;;4953230;28;20453;-73
2023/10/06 08:47:59;;;;;;;6.27;5.10;;;;;;;;;;4951809;29;20514;-68
2023/10/06 08:50:27;;;;;;;28.13;7.28;;;;;;;;;;4950027;28;20486;-69
2023/10/06 08:52:53;;;;;;;17.30;5.10;;;;;;;;;;4952060;29;20214;-70
2023/10/06 08:55:20;;;;;;;16.63;5.60;;;;;;;;;;4951509;28;20442;-69
2023/10/06 08:57:47;;;;;;;6.23;4.80;;;;;;;;;;4935016;28;21647;-75
2023/10/06 09:00:14;;;;;;;5.80;5.30;;;;;;;;;;4951683;28;20457;-69
2023/10/06 09:02:41;;;;;;;11.03;4.60;;;;;;;;;;4951689;28;20966;-71
2023/10/06 09:05:12;;;;;;;4.87;4.40;;;;;;;;;;4952499;28;20588;-70
2023/10/06 09:07:38;;;;;;;13.33;5.67;;;;;;;;;;4952905;28;20450;-70
2023/10/06 09:10:17;;;;;;;11.30;5.50;;;;;;;;;;4951977;29;20430;-70
2023/10/06 09:12:45;;;;;;;5.00;3.60;;;;;;;;;;4952506;28;20473;-75
2023/10/06 09:15:16;;;;;;;6.33;5.70;;;;;;;;;;4953220;28;20475;-71
2023/10/06 09:17:41;;;;;;;9.60;6.40;;;;;;;;;;4952026;28;20832;-71
2023/10/06 09:20:08;;;;;;;11.30;6.03;;;;;;;;;;4951989;28;21023;-72
2023/10/06 09:22:48;;;;;;;14.80;6.37;;;;;;;;;;4952081;28;20442;-68
2023/10/06 09:25:14;;;;;;;10.10;6.33;;;;;;;;;;4951964;28;20435;-74
2023/10/06 09:27:41;;;;;;;14.70;8.90;;;;;;;;;;4951942;28;20517;-71
2023/10/06 09:30:10;;;;;;;12.00;9.30;;;;;;;;;;4951958;28;20458;-77
2023/10/06 09:32:36;;;;;;;18.00;9.27;;;;;;;;;;4952797;28;20423;-69
2023/10/06 09:35:21;;;;;;;12.30;10.00;;;;;;;;;;4950593;28;20450;-73
2023/10/06 09:37:47;;;;;;;14.63;8.20;;;;;;;;;;4952370;29;20489;-69
2023/10/06 09:40:20;;;;;;;11.90;6.00;;;;;;;;;;4934460;29;20537;-68
2023/10/06 09:42:50;;;;;;;7.50;5.63;;;;;;;;;;4949919;28;20466;-68
2023/10/06 09:45:21;;;;;;;13.23;8.45;;;;;;;;;;4951691;29;20432;-68
2023/10/06 09:47:50;;;;;;;13.87;7.30;;;;;;;;;;4934838;29;20660;-67
2023/10/06 09:50:20;;;;;;;24.50;13.27;;;;;;;;;;4932604;29;20443;-67
2023/10/06 09:52:47;;;;;;;16.50;9.17;;;;;;;;;;4952186;28;20532;-68
2023/10/06 09:55:14;;;;;;;8.37;5.30;;;;;;;;;;4952375;28;20430;-67
2023/10/06 09:57:47;;;;;;;5.70;5.20;;;;;;;;;;4952416;28;20446;-70
2023/10/06 10:00:16;;;;;;;7.97;5.30;;;;;;;;;;4951561;28;20446;-68
2023/10/06 10:02:44;;;;;;;7.83;5.60;;;;;;;;;;4951663;28;20438;-68
2023/10/06 10:05:11;;;;;;;8.27;4.90;;;;;;;;;;4934138;29;20523;-69
2023/10/06 10:07:40;;;;;;;8.87;4.50;;;;;;;;;;4950487;28;21432;-68
2023/10/06 10:10:08;;;;;;;7.63;4.27;;;;;;;;;;4949688;28;20439;-68
2023/10/06 10:12:37;;;;;;;5.43;4.63;;;;;;;;;;4935141;28;20420;-68
2023/10/06 10:15:11;;;;;;;7.67;4.80;;;;;;;;;;4950752;28;20493;-69
2023/10/06 10:17:49;;;;;;;18.93;4.07;;;;;;;;;;4951924;28;20434;-68
2023/10/06 10:20:16;;;;;;;4.27;3.70;;;;;;;;;;4951135;28;20793;-68
2023/10/06 10:22:43;;;;;;;4.90;4.50;;;;;;;;;;4933134;29;20850;-68
2023/10/06 10:25:13;;;;;;;14.10;4.03;;;;;;;;;;4951464;28;20451;-68
2023/10/06 10:27:39;;;;;;;5.00;4.40;;;;;;;;;;4951795;28;20445;-68
2023/10/06 10:30:09;;;;;;;6.67;5.13;;;;;;;;;;4952265;28;20529;-68
2023/10/06 10:32:35;;;;;;;6.20;4.37;;;;;;;;;;4951265;28;20810;-68
2023/10/06 10:35:08;;;;;;;5.97;4.73;;;;;;;;;;4947362;28;20446;-68
2023/10/06 10:37:51;;;;;;;7.47;4.53;;;;;;;;;;4951477;28;20443;-69
2023/10/06 10:40:20;;;;;;;5.70;4.30;;;;;;;;;;4949539;28;20455;-70
2023/10/06 10:42:51;;;;;;;5.67;4.00;;;;;;;;;;4951069;29;20442;-69
2023/10/06 10:45:38;;;;;;;6.87;3.87;;;;;;;;;;4950771;29;20450;-68
2023/10/06 10:48:13;;;;;;;7.00;4.80;;;;;;;;;;4951256;29;20431;-68
2023/10/06 10:51:05;;;;;;;3.97;3.60;;;;;;;;;;4951738;28;20430;-68
2023/10/06 10:53:33;;;;;;;11.73;3.10;;;;;;;;;;4950796;28;20492;-69
2023/10/06 10:56:01;;;;;;;6.20;3.77;;;;;;;;;;4948842;29;21010;-68
2023/10/06 10:58:42;;;;;;;4.13;3.87;;;;;;;;;;4950687;28;20793;-69
2023/10/06 11:01:24;;;;;;;7.30;2.70;;;;;;;;;;4950089;29;20771;-70
2023/10/06 11:04:08;;;;;;;3.73;3.40;;;;;;;;;;4950738;28;20434;-68
2023/10/06 11:06:35;;;;;;;7.63;4.60;;;;;;;;;;4951049;28;20825;-68
2023/10/06 11:09:12;;;;;;;4.50;4.10;;;;;;;;;;4933937;29;20512;-68
2023/10/06 11:11:38;;;;;;;9.53;3.80;;;;;;;;;;4950372;29;21158;-69
2023/10/06 11:14:04;;;;;;;13.63;4.83;;;;;;;;;;4951454;28;20596;-69
2023/10/06 11:16:32;;;;;;;9.20;3.73;;;;;;;;;;4950903;29;20940;-68
2023/10/06 11:18:58;;;;;;;3.40;2.37;;;;;;;;;;4950478;28;20464;-68
2023/10/06 11:21:24;;;;;;;4.23;3.83;;;;;;;;;;4952283;28;20911;-68
2023/10/06 11:23:50;;;;;;;4.17;3.77;;;;;;;;;;4952691;29;20445;-68
2023/10/06 11:26:30;;;;;;;6.90;4.03;;;;;;;;;;4951900;29;20451;-68
2023/10/06 11:28:56;;;;;;;4.40;4.10;;;;;;;;;;4953790;29;20800;-69
2023/10/06 11:31:25;;;;;;;4.63;3.97;;;;;;;;;;4952921;29;20431;-68
2023/10/06 11:33:51;;;;;;;5.10;3.60;;;;;;;;;;4953695;29;20486;-69
2023/10/06 11:36:18;;;;;;;7.40;3.40;;;;;;;;;;4953897;29;20447;-70
2023/10/06 11:38:45;;;;;;;6.87;5.37;;;;;;;;;;4951683;29;20450;-69
2023/10/06 11:41:11;;;;;;;5.43;4.80;;;;;;;;;;4953499;28;20450;-70
2023/10/06 11:43:37;;;;;;;7.87;4.10;;;;;;;;;;4953415;29;20927;-68
2023/10/06 11:46:03;;;;;;;8.83;4.17;;;;;;;;;;4952214;28;20533;-69
2023/10/06 11:48:34;;;;;;;10.20;4.33;;;;;;;;;;4953150;28;20936;-68
2023/10/06 11:51:07;;;;;;;3.20;3.10;;;;;;;;;;4953371;28;20435;-69
2023/10/06 11:53:37;;;;;;;15.03;3.40;;;;;;;;;;4952830;28;20497;-69
2023/10/06 11:56:10;;;;;;;5.13;3.63;;;;;;;;;;4953801;29;20841;-68
2023/10/06 11:58:36;;;;;;;7.13;3.50;;;;;;;;;;4953335;28;20533;-68
2023/10/06 12:01:05;;;;;;;6.20;4.20;;;;;;;;;;4953418;28;20438;-68
2023/10/06 12:03:42;;;;;;;3.70;3.47;;;;;;;;;;4954041;28;20454;-69
2023/10/06 12:06:13;;;;;;;8.70;4.00;;;;;;;;;;4954400;28;20539;-68
2023/10/06 12:08:43;;;;;;;8.60;4.07;;;;;;;;;;4953710;28;20451;-68
2023/10/06 12:11:12;;;;;;;3.33;2.40;;;;;;;;;;4953653;28;20532;-68
2023/10/06 12:13:38;;;;;;;3.63;3.37;;;;;;;;;;4936274;29;20648;-68
2023/10/06 12:16:16;;;;;;;9.43;3.63;;;;;;;;;;4952781;28;21049;-68
2023/10/06 12:18:43;;;;;;;4.60;3.40;;;;;;;;;;4952957;29;20450;-68
2023/10/06 12:21:11;;;;;;;7.70;3.53;;;;;;;;;;4952132;29;20541;-68
2023/10/06 12:23:37;;;;;;;4.97;4.30;;;;;;;;;;4953615;29;20423;-68
2023/10/06 12:26:06;;;;;;;7.93;3.57;;;;;;;;;;4951598;28;20447;-68
2023/10/06 12:28:32;;;;;;;6.67;3.70;;;;;;;;;;4952886;28;20800;-68
2023/10/06 12:30:58;;;;;;;3.80;3.50;;;;;;;;;;4951870;28;20438;-83
2023/10/06 12:33:24;;;;;;;9.23;2.83;;;;;;;;;;4954005;28;20501;-68
2023/10/06 12:35:52;;;;;;;4.00;3.03;;;;;;;;;;4952591;28;20443;-68
2023/10/06 12:38:18;;;;;;;3.90;3.60;;;;;;;;;;4952173;29;20513;-68
2023/10/06 12:40:48;;;;;;;2.53;2.40;;;;;;;;;;4935522;29;20515;-68
2023/10/06 12:43:14;;;;;;;3.00;2.80;;;;;;;;;;4952004;29;20950;-69
2023/10/06 12:45:40;;;;;;;4.10;3.80;;;;;;;;;;4952178;28;20825;-69
2023/10/06 12:48:07;;;;;;;5.40;3.60;;;;;;;;;;4952394;29;20931;-69
2023/10/06 12:50:43;;;;;;;5.73;2.40;;;;;;;;;;4951459;29;20986;-68
2023/10/06 12:53:10;;;;;;;6.43;3.10;;;;;;;;;;4952354;29;20478;-68
2023/10/06 12:55:36;;;;;;;2.27;2.17;;;;;;;;;;4951481;29;20506;-68
2023/10/06 12:58:06;;;;;;;3.20;2.67;;;;;;;;;;4953597;28;20445;-68
2023/10/06 13:00:32;;;;;;;2.57;2.43;;;;;;;;;;4952984;28;20490;-70
2023/10/06 13:02:58;;;;;;;7.40;2.80;;;;;;;;;;4952943;28;20422;-69
2023/10/06 13:05:25;;;;;;;11.93;4.20;;;;;;;;;;4934806;29;20446;-68
2023/10/06 13:07:51;;;;;;;6.43;2.53;;;;;;;;;;4953570;28;20453;-69
2023/10/06 13:10:22;;;;;;;5.80;2.67;;;;;;;;;;4952536;28;20442;-69
2023/10/06 13:12:48;;;;;;;3.37;3.17;;;;;;;;;;4935454;29;20458;-68
2023/10/06 13:15:17;;;;;;;6.47;4.27;;;;;;;;;;4952056;28;20860;-69
2023/10/06 13:17:43;;;;;;;3.97;3.60;;;;;;;;;;4934865;29;20438;-68
2023/10/06 13:20:13;;;;;;;11.77;3.80;;;;;;;;;;4952023;29;20462;-68
2023/10/06 13:22:40;;;;;;;4.73;3.57;;;;;;;;;;4953667;28;20506;-68
2023/10/06 13:25:10;;;;;;;7.90;3.90;;;;;;;;;;4934271;29;20909;-68
2023/10/06 13:27:39;;;;;;;3.50;2.20;;;;;;;;;;4951983;28;20451;-68
2023/10/06 13:30:24;;;;;;;10.23;2.07;;;;;;;;;;4951998;29;20932;-68
2023/10/06 13:32:52;;;;;;;2.87;2.77;;;;;;;;;;4951963;28;20514;-68
2023/10/06 13:35:21;;;;;;;5.23;3.13;;;;;;;;;;4952169;29;20449;-68
2023/10/06 13:37:48;;;;;;;5.00;3.73;;;;;;;;;;4952348;29;20493;-68
2023/10/06 13:40:15;;;;;;;4.40;3.50;;;;;;;;;;4951664;29;20521;-70
2023/10/06 13:42:45;;;;;;;6.10;3.70;;;;;;;;;;4952923;28;20425;-68
2023/10/06 13:45:17;;;;;;;3.50;3.30;;;;;;;;;;4952494;28;20419;-68
2023/10/06 13:47:43;;;;;;;4.17;3.70;;;;;;;;;;4952050;29;20853;-68
2023/10/06 13:50:12;;;;;;;8.30;3.40;;;;;;;;;;4951824;29;20497;-68
2023/10/06 13:52:39;;;;;;;7.77;2.97;;;;;;;;;;4952004;29;20423;-68
2023/10/06 13:55:05;;;;;;;8.17;4.13;;;;;;;;;;4951615;29;20431;-69
2023/10/06 13:57:31;;;;;;;9.10;3.80;;;;;;;;;;4952028;29;20419;-68
2023/10/06 13:59:57;;;;;;;4.83;2.47;;;;;;;;;;4952502;28;20449;-69
2023/10/06 14:02:24;;;;;;;4.50;3.97;;;;;;;;;;4951970;29;20423;-68
2023/10/06 14:04:50;;;;;;;5.63;3.50;;;;;;;;;;4951465;28;21856;-68
2023/10/06 14:07:17;;;;;;;11.90;3.63;;;;;;;;;;4951970;29;20537;-69
2023/10/06 14:09:43;;;;;;;5.97;3.53;;;;;;;;;;4951438;29;20430;-69
2023/10/06 14:12:13;;;;;;;6.70;3.87;;;;;;;;;;4951525;28;20465;-68
2023/10/06 14:17:19;;;;;;;4.33;3.27;;;;;;;;;;4971335;28;20414;-68
2023/10/06 14:19:50;;;;;;;6.53;3.47;;;;;;;;;;4969477;28;20428;-69
2023/10/06 14:22:22;;;;;;;6.10;3.43;;;;;;;;;;4970320;28;20425;-69
2023/10/06 14:24:48;;;;;;;5.40;3.70;;;;;;;;;;4970584;28;20421;-68
2023/10/06 14:27:18;;;;;;;8.03;4.00;;;;;;;;;;4971314;28;20414;-68
2023/10/06 14:29:44;;;;;;;5.33;3.17;;;;;;;;;;4970437;28;20938;-68
2023/10/06 14:32:38;;;;;;;10.27;3.40;;;;;;;;;;4970506;28;20537;-68
2023/10/06 14:45:57;;;;;;;3.10;2.80;;;;;;;;;;4970866;28;20785;-68
2023/10/06 14:46:42;;;;;;;3.10;2.90;;;;;;;;;;4970394;28;20449;-68
2023/10/06 14:49:12;;;;;;;4.90;2.73;;;;;;;;;;4968493;28;20785;-69
2023/10/06 14:51:39;;;;;;;19.93;3.90;;;;;;;;;;4969139;28;21002;-69
2023/10/06 14:54:07;;;;;;;2.20;2.10;;;;;;;;;;4967833;28;20584;-68
2023/10/06 14:56:34;;;;;;;3.33;2.77;;;;;;;;;;4970879;28;21053;-68
2023/10/06 14:59:00;;;;;;;9.80;2.87;;;;;;;;;;4974503;28;20461;-69
2023/10/06 15:01:28;;;;;;;3.10;2.80;;;;;;;;;;4973340;28;20944;-69
2023/10/06 15:03:59;;;;;;;2.23;2.03;;;;;;;;;;4974249;28;20438;-69
2023/10/06 15:06:25;;;;;;;7.50;2.30;;;;;;;;;;4973193;28;20819;-68